Time;durP1;ratioP1;P1;durP2;ratioP2;P2;SDS_P1;SDS_P2;PMS_P1;PMS_P2;Temp;Humidity;BMP_temperature;BMP_pressure;BME280_temperature;BME280_humidity;BME280_pressure;Samples;Min_cycle;Max_cycle;Signal;HPM_P1;HPM_P2
2023/06/06 00:00:16;;;;;;;3.33;1.83;;;19.60;73.10;;;;;;5058312;28;20995;-58
2023/06/06 00:02:45;;;;;;;3.70;1.77;;;19.70;75.50;;;;;;5058036;28;20555;-58
2023/06/06 00:05:13;;;;;;;3.00;2.50;;;;;;;;;;5058649;28;20511;-55
2023/06/06 00:07:41;;;;;;;2.73;2.40;;;;;;;;;;5058200;28;21005;-55
2023/06/06 00:10:09;;;;;;;3.87;2.00;;;19.50;76.90;;;;;;5058499;28;20462;-56
2023/06/06 00:12:37;;;;;;;6.03;2.90;;;19.40;77.40;;;;;;5058568;28;20470;-57
2023/06/06 00:15:05;;;;;;;8.07;2.17;;;;;;;;;;5058418;28;20843;-53
2023/06/06 00:17:33;;;;;;;3.20;2.17;;;;;;;;;;5058488;28;20966;-57
2023/06/06 00:20:01;;;;;;;2.30;1.77;;;;;;;;;;5058854;28;20451;-58
2023/06/06 00:22:28;;;;;;;3.90;2.73;;;;;;;;;;5058137;28;20450;-57
2023/06/06 00:24:55;;;;;;;5.13;2.60;;;;;;;;;;5058692;28;20518;-58
2023/06/06 00:27:23;;;;;;;2.67;1.87;;;;;;;;;;5058241;28;20570;-58
2023/06/06 00:29:51;;;;;;;4.03;2.30;;;19.20;78.70;;;;;;5058483;28;20777;-56
2023/06/06 00:32:18;;;;;;;8.40;2.17;;;;;;;;;;5058273;28;20475;-58
2023/06/06 00:34:45;;;;;;;2.70;1.83;;;;;;;;;;5058308;28;20507;-56
2023/06/06 00:37:13;;;;;;;4.60;1.90;;;;;;;;;;5057901;28;20896;-59
2023/06/06 00:39:40;;;;;;;3.73;2.10;;;;;;;;;;5058196;28;20494;-58
2023/06/06 00:42:08;;;;;;;3.90;1.97;;;19.20;77.50;;;;;;5058457;28;20460;-55
2023/06/06 00:44:35;;;;;;;2.30;1.97;;;;;;;;;;5058167;28;20530;-55
2023/06/06 00:47:04;;;;;;;2.07;1.70;;;19.20;80.20;;;;;;5057719;28;20562;-57
2023/06/06 00:49:31;;;;;;;3.10;1.93;;;19.10;77.50;;;;;;5057758;28;20522;-57
2023/06/06 00:51:59;;;;;;;2.50;1.23;;;;;;;;;;5061068;28;20561;-56
2023/06/06 00:54:26;;;;;;;3.63;1.60;;;;;;;;;;5061349;28;20450;-56
2023/06/06 00:56:54;;;;;;;2.90;2.00;;;19.00;80.50;;;;;;5061504;28;20471;-57
2023/06/06 00:59:23;;;;;;;5.57;2.57;;;;;;;;;;5062414;28;20471;-57
2023/06/06 01:01:50;;;;;;;3.80;2.20;;;;;;;;;;5062173;28;20457;-57
2023/06/06 01:04:19;;;;;;;3.33;2.20;;;18.90;81.60;;;;;;5061600;28;20449;-56
2023/06/06 01:06:49;;;;;;;4.43;2.00;;;18.90;81.30;;;;;;5061750;28;20479;-57
2023/06/06 01:09:16;;;;;;;3.43;1.93;;;;;;;;;;5061169;28;20541;-53
2023/06/06 01:11:53;;;;;;;3.83;2.20;;;18.60;81.40;;;;;;5061528;28;20450;-57
2023/06/06 01:14:26;;;;;;;4.80;2.27;;;18.90;81.80;;;;;;5062239;28;20471;-56
2023/06/06 01:16:57;;;;;;;4.03;2.00;;;18.80;82.00;;;;;;5061745;28;20455;-57
2023/06/06 01:19:32;;;;;;;2.27;2.07;;;18.80;83.20;;;;;;5061555;28;20975;-56
2023/06/06 01:22:00;;;;;;;7.67;1.80;;;18.60;83.10;;;;;;5061260;28;20921;-57
2023/06/06 01:24:28;;;;;;;4.10;1.87;;;;;;;;;;5061298;28;20451;-55
2023/06/06 01:26:55;;;;;;;2.93;2.40;;;;;;;;;;5061034;28;20490;-54
2023/06/06 01:29:22;;;;;;;5.60;1.90;;;;;;;;;;5061764;28;20466;-52
2023/06/06 01:32:00;;;;;;;4.97;2.20;;;18.80;83.30;;;;;;5061620;28;21009;-55
2023/06/06 01:34:32;;;;;;;4.03;2.27;;;18.60;83.20;;;;;;5061009;28;20505;-56
2023/06/06 01:37:11;;;;;;;8.53;2.50;;;18.80;83.90;;;;;;5059124;28;20978;-59
2023/06/06 01:39:44;;;;;;;5.00;2.00;;;18.90;84.10;;;;;;5057451;28;20814;-58
2023/06/06 01:42:11;;;;;;;2.33;1.80;;;18.50;83.70;;;;;;5058987;28;20471;-57
2023/06/06 01:44:40;;;;;;;5.93;2.53;;;18.70;83.70;;;;;;5059143;28;20519;-56
2023/06/06 01:47:08;;;;;;;5.23;2.30;;;18.70;80.60;;;;;;5058888;28;20566;-57
2023/06/06 01:49:35;;;;;;;2.23;1.50;;;;;;;;;;5059205;28;20509;-55
2023/06/06 01:52:04;;;;;;;7.70;1.83;;;18.50;83.80;;;;;;5058740;28;20908;-56
2023/06/06 01:54:34;;;;;;;4.33;2.00;;;;;;;;;;5058748;28;20471;-57
2023/06/06 01:57:01;;;;;;;3.13;1.30;;;;;;;;;;5058812;28;20581;-58
2023/06/06 01:59:29;;;;;;;2.13;1.93;;;;;;;;;;5058902;28;20514;-57
2023/06/06 02:01:56;;;;;;;2.43;1.77;;;;;;;;;;5058515;28;20511;-57
2023/06/06 02:04:23;;;;;;;6.87;2.17;;;;;;;;;;5059069;28;20440;-57
2023/06/06 02:06:51;;;;;;;4.30;2.10;;;;;;;;;;5058575;28;20535;-57
2023/06/06 02:09:19;;;;;;;2.97;2.00;;;18.60;85.20;;;;;;5058585;28;20455;-57
2023/06/06 02:11:46;;;;;;;5.40;2.07;;;;;;;;;;5058625;28;20443;-55
2023/06/06 02:14:15;;;;;;;3.70;1.60;;;;;;;;;;5063330;28;20478;-57
2023/06/06 02:16:45;;;;;;;3.50;2.20;;;;;;;;;;5066662;28;20505;-57
2023/06/06 02:19:12;;;;;;;2.17;1.50;;;;;;;;;;5062147;28;20443;-58
2023/06/06 02:21:39;;;;;;;4.13;2.23;;;;;;;;;;5067459;28;20467;-57
2023/06/06 02:24:07;;;;;;;4.20;2.20;;;18.20;82.90;;;;;;5062228;28;20480;-57
2023/06/06 02:26:35;;;;;;;3.00;1.90;;;18.10;85.60;;;;;;5065792;28;20511;-54
2023/06/06 02:29:03;;;;;;;2.30;1.80;;;;;;;;;;5065187;28;20483;-57
2023/06/06 02:31:30;;;;;;;2.83;1.93;;;;;;;;;;5062535;28;20946;-55
2023/06/06 02:33:57;;;;;;;3.07;1.63;;;;;;;;;;5060920;28;20584;-56
2023/06/06 02:36:25;;;;;;;3.43;2.87;;;;;;;;;;5064997;28;20463;-56
2023/06/06 02:38:52;;;;;;;2.97;2.00;;;;;;;;;;5061283;28;20525;-55
2023/06/06 02:41:19;;;;;;;4.53;2.47;;;;;;;;;;5062898;28;20471;-56
2023/06/06 02:43:48;;;;;;;7.93;2.07;;;18.10;85.90;;;;;;5062940;28;20474;-55
2023/06/06 02:46:15;;;;;;;3.60;1.53;;;;;;;;;;5064620;28;20478;-56
2023/06/06 02:48:45;;;;;;;4.80;2.33;;;;;;;;;;5063027;28;20566;-55
2023/06/06 02:51:12;;;;;;;3.50;2.17;;;;;;;;;;5065343;28;20463;-57
2023/06/06 02:53:40;;;;;;;3.57;2.13;;;;;;;;;;5063668;28;20463;-57
2023/06/06 02:56:08;;;;;;;2.80;1.90;;;;;;;;;;5062534;28;20467;-55
2023/06/06 02:58:35;;;;;;;2.60;1.90;;;;;;;;;;5065673;28;20924;-57
2023/06/06 03:01:04;;;;;;;3.10;2.30;;;;;;;;;;5064197;28;20931;-58
2023/06/06 03:03:31;;;;;;;4.23;2.17;;;;;;;;;;5062945;28;20786;-57
2023/06/06 03:06:00;;;;;;;5.23;2.20;;;18.00;86.30;;;;;;5066576;28;20462;-57
2023/06/06 03:08:28;;;;;;;4.17;2.47;;;;;;;;;;5064229;28;20509;-57
2023/06/06 03:10:55;;;;;;;2.80;1.93;;;;;;;;;;5063274;28;20896;-58
2023/06/06 03:13:22;;;;;;;3.70;2.17;;;;;;;;;;5065039;28;20467;-58
2023/06/06 03:15:49;;;;;;;5.83;2.97;;;;;;;;;;5062780;28;20479;-58
2023/06/06 03:18:20;;;;;;;3.70;2.37;;;;;;;;;;5062002;28;20542;-57
2023/06/06 03:20:51;;;;;;;5.27;2.40;;;17.90;83.70;;;;;;5063613;28;20493;-56
2023/06/06 03:23:19;;;;;;;4.10;2.10;;;18.00;83.80;;;;;;5063003;28;20427;-56
2023/06/06 03:25:49;;;;;;;4.40;1.80;;;17.80;85.60;;;;;;5061685;28;20447;-57
2023/06/06 03:28:24;;;;;;;2.20;1.70;;;17.90;87.30;;;;;;5065434;28;20784;-56
2023/06/06 03:30:52;;;;;;;3.47;2.30;;;;;;;;;;5061006;28;20803;-57
2023/06/06 03:33:20;;;;;;;5.47;2.20;;;17.90;88.40;;;;;;5063466;28;20546;-57
2023/06/06 03:35:47;;;;;;;3.00;2.23;;;;;;;;;;5065396;28;20565;-56
2023/06/06 03:38:15;;;;;;;6.13;2.43;;;;;;;;;;5063433;28;20447;-56
2023/06/06 03:40:42;;;;;;;3.83;2.33;;;;;;;;;;5070310;28;20545;-54
2023/06/06 03:43:09;;;;;;;4.43;2.23;;;;;;;;;;5064611;28;20466;-54
2023/06/06 03:45:36;;;;;;;4.37;2.33;;;;;;;;;;5063391;28;20507;-55
2023/06/06 03:48:03;;;;;;;5.13;2.13;;;;;;;;;;5064140;28;20483;-51
2023/06/06 03:50:31;;;;;;;6.60;2.37;;;17.70;90.60;;;;;;5064952;28;20447;-55
2023/06/06 03:52:59;;;;;;;5.00;2.10;;;;;;;;;;5064517;28;20531;-55
2023/06/06 03:55:33;;;;;;;3.37;2.00;;;17.80;90.90;;;;;;5062443;28;20451;-55
2023/06/06 03:58:00;;;;;;;3.07;1.80;;;;;;;;;;5062329;28;20471;-57
2023/06/06 04:00:27;;;;;;;2.53;2.13;;;;;;;;;;5063102;28;20463;-57
2023/06/06 04:02:54;;;;;;;6.67;2.60;;;;;;;;;;5063258;28;20479;-55
2023/06/06 04:05:23;;;;;;;2.90;2.00;;;;;;;;;;5062410;28;20474;-57
2023/06/06 04:07:51;;;;;;;2.60;2.10;;;17.70;91.40;;;;;;5064705;28;20478;-54
2023/06/06 04:10:21;;;;;;;8.30;2.70;;;;;;;;;;5063531;28;20491;-56
2023/06/06 04:12:48;;;;;;;3.37;2.27;;;;;;;;;;5064672;28;20443;-55
2023/06/06 04:15:15;;;;;;;3.60;1.90;;;;;;;;;;5061662;28;20533;-56
2023/06/06 04:17:42;;;;;;;10.17;2.80;;;;;;;;;;5058659;28;20444;-56
2023/06/06 04:20:10;;;;;;;5.10;2.40;;;17.70;92.50;;;;;;5060607;28;20486;-57
2023/06/06 04:22:38;;;;;;;5.10;2.93;;;;;;;;;;5059540;28;20463;-58
2023/06/06 04:25:07;;;;;;;5.80;2.77;;;17.50;93.00;;;;;;5058824;28;20960;-55
2023/06/06 04:27:36;;;;;;;4.13;2.00;;;;;;;;;;5062841;28;20526;-54
2023/06/06 04:30:04;;;;;;;5.33;2.60;;;;;;;;;;5063133;28;20477;-55
2023/06/06 04:32:31;;;;;;;5.57;2.50;;;;;;;;;;5062726;28;20471;-53
2023/06/06 04:34:58;;;;;;;2.40;2.20;;;;;;;;;;5062574;28;20510;-55
2023/06/06 04:37:27;;;;;;;6.30;2.27;;;;;;;;;;5063090;28;20962;-54
2023/06/06 04:39:56;;;;;;;9.23;2.90;;;;;;;;;;5062524;28;20443;-54
2023/06/06 04:42:26;;;;;;;3.37;2.47;;;17.80;93.30;;;;;;5062747;28;20475;-57
2023/06/06 04:44:53;;;;;;;5.83;2.70;;;;;;;;;;5063018;28;20436;-56
2023/06/06 04:47:20;;;;;;;3.97;2.40;;;;;;;;;;5062651;28;20509;-59
2023/06/06 04:49:48;;;;;;;8.03;4.77;;;17.80;91.70;;;;;;5062558;28;20508;-57
2023/06/06 04:52:18;;;;;;;3.47;2.27;;;;;;;;;;5062686;28;20451;-55
2023/06/06 04:54:46;;;;;;;5.57;2.73;;;17.90;92.30;;;;;;5062475;28;20754;-56
2023/06/06 04:57:15;;;;;;;4.30;2.60;;;;;;;;;;5062598;28;20442;-57
2023/06/06 04:59:50;;;;;;;3.43;2.73;;;18.10;93.20;;;;;;5062671;28;20440;-55
2023/06/06 05:02:20;;;;;;;3.20;2.27;;;;;;;;;;5062780;28;20948;-58
2023/06/06 05:04:47;;;;;;;4.10;2.50;;;;;;;;;;5062414;28;20908;-54
2023/06/06 05:07:15;;;;;;;6.33;2.00;;;;;;;;;;5062297;28;20459;-53
2023/06/06 05:09:42;;;;;;;4.30;2.40;;;;;;;;;;5062171;28;20475;-57
2023/06/06 05:12:09;;;;;;;5.10;2.17;;;;;;;;;;5061497;28;20453;-58
2023/06/06 05:14:36;;;;;;;8.10;2.60;;;;;;;;;;5061744;28;20521;-55
2023/06/06 05:17:05;;;;;;;4.03;2.50;;;18.50;91.90;;;;;;5061792;28;20443;-56
2023/06/06 05:19:34;;;;;;;2.40;2.07;;;;;;;;;;5061473;28;20525;-56
2023/06/06 05:22:01;;;;;;;3.90;2.10;;;;;;;;;;5061418;28;20760;-55
2023/06/06 05:24:28;;;;;;;4.93;2.87;;;;;;;;;;5061709;28;20503;-52
2023/06/06 05:26:55;;;;;;;2.60;1.90;;;;;;;;;;5061680;28;20515;-56
2023/06/06 05:29:26;;;;;;;4.60;2.57;;;18.70;90.20;;;;;;5061637;28;20487;-56
2023/06/06 05:31:53;;;;;;;7.70;2.40;;;;;;;;;;5061380;28;20455;-57
2023/06/06 05:34:21;;;;;;;3.60;2.80;;;19.10;87.80;;;;;;5061303;28;20527;-57
2023/06/06 05:36:50;;;;;;;3.20;2.30;;;19.10;88.00;;;;;;5061429;28;20486;-58
2023/06/06 05:39:18;;;;;;;4.50;2.60;;;;;;;;;;5060881;28;20467;-57
2023/06/06 05:41:47;;;;;;;7.67;3.17;;;;;;;;;;5061254;28;20489;-58
2023/06/06 05:44:14;;;;;;;2.53;2.20;;;;;;;;;;5061029;28;20493;-57
2023/06/06 05:46:41;;;;;;;3.60;2.00;;;;;;;;;;5061148;28;20436;-56
2023/06/06 05:49:08;;;;;;;4.60;2.23;;;;;;;;;;5060741;28;20542;-56
2023/06/06 05:51:38;;;;;;;6.50;2.90;;;;;;;;;;5060670;28;20439;-57
2023/06/06 05:54:05;;;;;;;6.30;2.63;;;;;;;;;;5060337;28;20443;-57
2023/06/06 05:56:32;;;;;;;7.57;2.50;;;;;;;;;;5061176;28;20530;-57
2023/06/06 05:58:59;;;;;;;6.03;2.70;;;;;;;;;;5060358;28;20494;-56
2023/06/06 06:01:26;;;;;;;3.10;2.30;;;;;;;;;;5060560;28;20562;-56
2023/06/06 06:03:53;;;;;;;3.40;1.97;;;;;;;;;;5060013;28;20517;-57
2023/06/06 06:06:21;;;;;;;4.73;2.57;;;;;;;;;;5061091;28;20817;-57
2023/06/06 06:08:50;;;;;;;4.27;2.13;;;20.20;81.90;;;;;;5059552;28;20479;-57
2023/06/06 06:11:17;;;;;;;12.33;3.00;;;;;;;;;;5060509;28;20471;-58
2023/06/06 06:13:44;;;;;;;5.77;3.07;;;;;;;;;;5059938;28;20916;-57
2023/06/06 06:16:11;;;;;;;4.40;2.70;;;;;;;;;;5060109;28;20525;-59
2023/06/06 06:18:38;;;;;;;4.07;2.77;;;;;;;;;;5059828;28;20503;-57
2023/06/06 06:21:06;;;;;;;3.20;2.60;;;;;;;;;;5059358;28;20558;-56
2023/06/06 06:23:33;;;;;;;10.20;3.40;;;;;;;;;;5059612;28;20482;-56
2023/06/06 06:26:01;;;;;;;4.13;2.80;;;;;;;;;;5059751;28;20531;-54
2023/06/06 06:28:28;;;;;;;3.80;2.77;;;;;;;;;;5059643;28;20479;-57
2023/06/06 06:30:56;;;;;;;2.90;2.27;;;;;;;;;;5059921;28;20515;-56
2023/06/06 06:33:23;;;;;;;3.37;2.30;;;21.70;79.90;;;;;;5059989;28;20936;-56
2023/06/06 06:35:50;;;;;;;3.97;2.27;;;;;;;;;;5059660;28;20472;-56
2023/06/06 06:38:18;;;;;;;6.97;2.77;;;;;;;;;;5059107;28;20475;-56
2023/06/06 06:40:45;;;;;;;3.77;2.70;;;;;;;;;;5059934;28;20492;-56
2023/06/06 06:43:14;;;;;;;9.40;3.10;;;;;;;;;;5055410;28;20558;-57
2023/06/06 06:45:41;;;;;;;5.60;3.53;;;;;;;;;;5058926;28;20447;-58
2023/06/06 06:48:09;;;;;;;2.50;2.30;;;;;;;;;;5058576;28;20546;-57
2023/06/06 06:50:36;;;;;;;10.80;2.40;;;;;;;;;;5059151;28;20477;-56
2023/06/06 06:53:04;;;;;;;4.63;2.10;;;;;;;;;;5058911;28;20490;-56
2023/06/06 06:55:31;;;;;;;5.23;3.00;;;22.40;72.20;;;;;;5058437;28;20482;-55
2023/06/06 06:57:59;;;;;;;5.03;2.90;;;;;;;;;;5058428;28;20471;-53
2023/06/06 07:00:28;;;;;;;4.40;3.33;;;;;;;;;;5058651;28;20479;-57
2023/06/06 07:02:56;;;;;;;4.10;2.60;;;23.30;97.40;;;;;;5064493;28;20451;-57
2023/06/06 07:05:25;;;;;;;2.77;2.37;;;;;;;;;;5062209;28;20452;-53
2023/06/06 07:07:53;;;;;;;9.07;2.93;;;23.30;72.80;;;;;;5062083;28;20531;-55
2023/06/06 07:10:20;;;;;;;3.40;2.30;;;;;;;;;;5061685;28;20463;-55
2023/06/06 07:12:48;;;;;;;5.67;3.37;;;;;;;;;;5061508;28;20523;-57
2023/06/06 07:15:15;;;;;;;6.13;2.90;;;;;;;;;;5061379;28;20454;-57
2023/06/06 07:17:49;;;;;;;8.50;3.93;;;23.90;99.90;;;;;;5061519;28;20526;-54
2023/06/06 07:20:20;;;;;;;3.33;2.67;;;;;;;;;;5062165;28;20734;-52
2023/06/06 07:22:47;;;;;;;5.27;2.37;;;;;;;;;;5061082;28;20438;-55
2023/06/06 07:25:15;;;;;;;3.17;2.63;;;;;;;;;;5061176;28;20466;-54
2023/06/06 07:27:42;;;;;;;4.03;2.60;;;;;;;;;;5061138;28;20458;-57
2023/06/06 07:30:13;;;;;;;3.87;2.97;;;;;;;;;;5061676;28;20561;-56
2023/06/06 07:32:41;;;;;;;4.20;2.60;;;;;;;;;;5061311;28;20447;-52
2023/06/06 07:35:12;;;;;;;6.20;2.70;;;24.60;68.10;;;;;;5060354;28;20479;-54
2023/06/06 07:37:40;;;;;;;9.20;3.33;;;;;;;;;;5060532;28;20432;-56
2023/06/06 07:40:08;;;;;;;21.77;12.80;;;23.70;64.00;;;;;;5061337;28;20578;-55
2023/06/06 07:42:36;;;;;;;9.83;5.37;;;25.60;93.40;;;;;;5060850;28;20465;-57
2023/06/06 07:45:03;;;;;;;7.83;3.33;;;;;;;;;;5060124;28;20544;-54
2023/06/06 07:47:33;;;;;;;6.37;3.07;;;;;;;;;;5060539;28;20521;-58
2023/06/06 07:50:02;;;;;;;7.00;3.30;;;;;;;;;;5059852;28;20550;-58
2023/06/06 07:52:32;;;;;;;4.67;2.80;;;26.30;97.20;;;;;;5059830;28;20451;-55
2023/06/06 07:55:00;;;;;;;7.43;3.30;;;;;;;;;;5059255;28;20560;-56
2023/06/06 07:57:28;;;;;;;8.80;4.10;;;;;;;;;;5059439;28;20494;-57
2023/06/06 07:59:56;;;;;;;4.90;3.07;;;25.90;63.10;;;;;;5061253;28;20478;-56
2023/06/06 08:02:23;;;;;;;3.70;2.93;;;;;;;;;;5063405;28;20518;-58
2023/06/06 08:04:51;;;;;;;9.17;3.53;;;;;;;;;;5063545;28;20524;-57
2023/06/06 08:07:18;;;;;;;5.03;3.03;;;;;;;;;;5066816;28;20447;-57
2023/06/06 08:09:46;;;;;;;4.90;3.77;;;25.60;65.10;;;;;;5064305;28;20483;-57
2023/06/06 08:12:14;;;;;;;3.80;2.77;;;;;;;;;;5063689;28;20478;-58
2023/06/06 08:14:41;;;;;;;4.37;3.03;;;;;;;;;;5060893;28;20446;-54
2023/06/06 08:17:08;;;;;;;5.47;3.33;;;;;;;;;;5058681;28;20819;-58
2023/06/06 08:19:35;;;;;;;3.90;3.00;;;;;;;;;;5061274;28;20562;-57
2023/06/06 08:22:03;;;;;;;4.37;2.83;;;;;;;;;;5061021;28;20911;-56
2023/06/06 08:24:30;;;;;;;5.93;3.60;;;;;;;;;;5060378;28;20443;-55
2023/06/06 08:27:00;;;;;;;3.67;2.80;;;;;;;;;;5060492;28;20581;-57
2023/06/06 08:29:27;;;;;;;4.60;3.30;;;;;;;;;;5060475;28;20493;-56
2023/06/06 08:31:55;;;;;;;4.13;3.37;;;;;;;;;;5065648;28;20471;-56
2023/06/06 08:34:22;;;;;;;4.53;3.40;;;;;;;;;;5062829;28;20513;-57
2023/06/06 08:36:50;;;;;;;6.10;3.57;;;;;;;;;;5062394;28;20473;-56
2023/06/06 08:39:18;;;;;;;3.50;3.13;;;;;;;;;;5062867;28;20443;-55
2023/06/06 08:41:50;;;;;;;8.13;4.00;;;24.70;67.30;;;;;;5062954;28;20447;-56
2023/06/06 08:44:20;;;;;;;5.53;4.40;;;24.70;67.00;;;;;;5063071;28;20550;-53
2023/06/06 08:46:48;;;;;;;4.70;3.60;;;;;;;;;;5063441;28;20447;-58
2023/06/06 08:49:18;;;;;;;3.60;3.10;;;24.80;66.50;;;;;;5063092;28;20491;-53
2023/06/06 08:51:46;;;;;;;5.63;3.27;;;;;;;;;;5062679;28;20497;-57
2023/06/06 08:54:13;;;;;;;5.20;3.40;;;;;;;;;;5062646;28;20474;-56
2023/06/06 08:56:43;;;;;;;6.33;3.20;;;25.10;65.10;;;;;;5062762;28;20453;-57
2023/06/06 08:59:11;;;;;;;5.20;3.40;;;;;;;;;;5062803;28;20549;-55
2023/06/06 09:01:40;;;;;;;8.30;3.80;;;25.30;94.10;;;;;;5062959;28;20447;-57
2023/06/06 09:04:09;;;;;;;4.90;2.93;;;25.50;65.70;;;;;;5062374;28;20498;-55
2023/06/06 09:06:40;;;;;;;7.20;3.77;;;25.60;62.40;;;;;;5063433;28;20449;-58
2023/06/06 09:09:09;;;;;;;4.20;3.40;;;;;;;;;;5062271;28;20467;-54
2023/06/06 09:11:36;;;;;;;3.83;3.17;;;;;;;;;;5059590;28;20494;-58
2023/06/06 09:14:05;;;;;;;5.23;3.63;;;27.30;91.60;;;;;;5059747;28;20481;-58
2023/06/06 09:16:32;;;;;;;13.57;3.30;;;27.60;67.50;;;;;;5059385;28;20467;-58
2023/06/06 09:19:02;;;;;;;6.30;3.63;;;27.90;59.00;;;;;;5059857;28;20478;-57
2023/06/06 09:21:29;;;;;;;5.00;3.33;;;;;;;;;;5059749;28;20531;-56
2023/06/06 09:23:57;;;;;;;5.37;4.13;;;27.80;59.30;;;;;;5061800;28;20524;-58
2023/06/06 09:26:26;;;;;;;4.73;3.47;;;28.10;90.40;;;;;;5061648;28;20580;-55
2023/06/06 09:28:55;;;;;;;3.90;3.50;;;;;;;;;;5061118;28;20504;-57
2023/06/06 09:31:25;;;;;;;5.40;4.47;;;28.90;58.10;;;;;;5062029;28;20443;-56
2023/06/06 09:33:53;;;;;;;4.90;4.30;;;;;;;;;;5062122;28;20566;-58
2023/06/06 09:36:23;;;;;;;5.20;3.60;;;29.00;89.90;;;;;;5061834;28;20447;-56
2023/06/06 09:38:51;;;;;;;5.40;3.93;;;28.60;90.10;;;;;;5061561;28;20471;-57
2023/06/06 09:41:18;;;;;;;6.33;5.57;;;;;;;;;;5060066;28;20464;-58
2023/06/06 09:43:45;;;;;;;5.60;3.80;;;28.20;56.30;;;;;;5059365;28;20525;-56
2023/06/06 09:46:16;;;;;;;10.43;3.80;;;;;;;;;;5058591;28;20912;-56
2023/06/06 09:48:44;;;;;;;5.53;3.13;;;;;;;;;;5058323;28;20428;-59
2023/06/06 09:51:12;;;;;;;3.80;3.03;;;;;;;;;;5058773;28;20486;-59
2023/06/06 09:53:40;;;;;;;10.13;4.07;;;27.40;59.70;;;;;;5058379;28;20450;-58
2023/06/06 09:56:08;;;;;;;4.50;3.40;;;27.20;92.70;;;;;;5058323;28;20467;-58
2023/06/06 09:58:36;;;;;;;5.07;3.50;;;28.60;62.10;;;;;;5058405;28;20928;-57
2023/06/06 10:01:06;;;;;;;3.83;3.20;;;26.80;58.20;;;;;;5058568;28;20481;-57
2023/06/06 10:03:37;;;;;;;3.53;3.20;;;26.80;61.80;;;;;;5058555;28;20515;-58
2023/06/06 10:06:07;;;;;;;4.30;3.20;;;26.80;91.90;;;;;;5058715;28;20439;-57
2023/06/06 10:08:36;;;;;;;3.40;3.10;;;26.80;62.90;;;;;;5058766;28;20457;-58
2023/06/06 10:11:05;;;;;;;4.80;4.33;;;26.80;93.80;;;;;;5058083;28;20475;-57
2023/06/06 10:13:34;;;;;;;9.17;4.20;;;26.70;63.10;;;;;;5058085;28;20478;-56
2023/06/06 10:16:01;;;;;;;6.00;4.27;;;;;;;;;;5058169;28;20447;-57
2023/06/06 10:18:30;;;;;;;5.17;3.80;;;27.00;62.40;;;;;;5058727;28;20467;-57
2023/06/06 10:20:58;;;;;;;4.23;3.70;;;27.20;92.00;;;;;;5058595;28;20767;-58
2023/06/06 10:23:25;;;;;;;6.23;3.83;;;;;;;;;;5058417;28;20482;-57
2023/06/06 10:25:54;;;;;;;6.40;3.10;;;28.10;59.50;;;;;;5058050;28;20478;-58
2023/06/06 10:28:29;;;;;;;4.27;3.87;;;28.50;60.20;;;;;;5058302;28;20535;-55
2023/06/06 10:31:00;;;;;;;7.80;4.50;;;28.70;94.10;;;;;;5059265;28;20492;-56
2023/06/06 10:33:33;;;;;;;6.40;4.03;;;29.40;57.80;;;;;;5057891;28;20427;-56
2023/06/06 10:36:04;;;;;;;6.37;5.00;;;29.40;56.90;;;;;;5058083;28;20471;-55
2023/06/06 10:38:31;;;;;;;5.87;4.13;;;;;;;;;;5057759;28;20456;-58
2023/06/06 10:40:59;;;;;;;4.10;3.70;;;;;;;;;;5058009;28;20970;-56
2023/06/06 10:43:52;;;;;;;6.77;3.77;;;29.50;66.40;;;;;;5057560;28;20534;-56
2023/06/06 10:46:19;;;;;;;4.70;4.20;;;29.10;88.10;;;;;;5057850;28;21008;-58
2023/06/06 10:48:54;;;;;;;5.50;3.53;;;28.70;57.90;;;;;;5057403;28;20928;-57
2023/06/06 10:51:32;;;;;;;3.90;3.50;;;28.50;57.90;;;;;;5057919;28;20544;-56
2023/06/06 10:54:21;;;;;;;4.20;3.90;;;28.50;94.20;;;;;;5057338;28;20458;-57
2023/06/06 10:56:53;;;;;;;4.57;3.27;;;28.20;59.60;;;;;;5057554;28;20443;-59
2023/06/06 10:59:27;;;;;;;5.40;4.20;;;28.10;90.70;;;;;;5057329;28;20944;-54
2023/06/06 11:01:55;;;;;;;4.97;4.30;;;27.90;59.30;;;;;;5057422;28;20778;-58
2023/06/06 11:04:23;;;;;;;4.13;3.73;;;27.10;95.20;;;;;;5057076;28;20566;-58
2023/06/06 11:06:52;;;;;;;7.70;4.20;;;27.60;91.40;;;;;;5057578;28;20470;-57
2023/06/06 11:09:23;;;;;;;4.00;3.70;;;;;;;;;;5056807;28;20543;-58
2023/06/06 11:11:51;;;;;;;4.93;3.50;;;27.30;96.00;;;;;;5057148;28;20515;-55
2023/06/06 11:14:22;;;;;;;5.03;4.20;;;27.20;61.40;;;;;;5057178;28;20450;-56
2023/06/06 11:17:01;;;;;;;5.00;3.80;;;27.20;67.60;;;;;;5057480;28;20431;-56
2023/06/06 11:19:33;;;;;;;5.13;3.73;;;27.40;94.60;;;;;;5057043;28;20443;-53
2023/06/06 11:22:02;;;;;;;4.13;3.70;;;27.20;61.30;;;;;;5057042;28;20447;-56
2023/06/06 11:24:36;;;;;;;5.23;4.40;;;27.10;55.50;;;;;;5057055;28;20538;-55
2023/06/06 11:27:06;;;;;;;5.20;3.43;;;27.10;61.00;;;;;;5056967;28;20439;-59
2023/06/06 11:29:34;;;;;;;4.97;4.03;;;27.10;62.00;;;;;;5057090;28;20439;-58
2023/06/06 11:32:03;;;;;;;7.43;4.70;;;27.30;60.80;;;;;;5056742;28;20485;-57
2023/06/06 11:34:39;;;;;;;6.40;3.20;;;27.10;61.10;;;;;;5056636;28;20512;-57
2023/06/06 11:37:07;;;;;;;4.43;3.47;;;27.00;95.20;;;;;;5056849;28;20554;-57
2023/06/06 11:39:35;;;;;;;5.13;4.63;;;;;;;;;;5056756;28;20454;-57
2023/06/06 11:42:02;;;;;;;9.30;3.50;;;;;;;;;;5056823;28;20453;-57
2023/06/06 11:44:35;;;;;;;6.70;4.17;;;26.70;95.90;;;;;;5056920;28;20448;-55
2023/06/06 11:47:08;;;;;;;4.47;3.40;;;;;;;;;;5056967;28;21011;-57
2023/06/06 11:49:46;;;;;;;6.73;4.53;;;26.70;93.10;;;;;;5056548;28;20482;-57
2023/06/06 11:52:13;;;;;;;4.23;3.43;;;;;;;;;;5057012;28;20534;-58
2023/06/06 11:54:41;;;;;;;3.90;3.60;;;;;;;;;;5057008;28;20865;-57
2023/06/06 11:57:09;;;;;;;4.40;3.37;;;27.00;69.10;;;;;;5056587;28;20447;-56
2023/06/06 11:59:36;;;;;;;3.67;3.33;;;;;;;;;;5056704;28;20547;-57
2023/06/06 12:02:05;;;;;;;3.43;3.00;;;27.10;91.10;;;;;;5056432;28;20428;-57
2023/06/06 12:04:33;;;;;;;4.70;3.53;;;;;;;;;;5056870;28;20938;-58
2023/06/06 12:07:05;;;;;;;4.27;3.40;;;26.90;59.80;;;;;;5056838;28;20514;-57
2023/06/06 12:09:32;;;;;;;4.00;3.43;;;;;;;;;;5056696;28;20420;-55
2023/06/06 12:12:01;;;;;;;3.30;3.00;;;27.10;60.10;;;;;;5056666;28;20568;-57
2023/06/06 12:14:29;;;;;;;5.27;4.03;;;26.80;60.40;;;;;;5056431;28;20534;-57
2023/06/06 12:17:04;;;;;;;3.77;3.47;;;26.70;61.00;;;;;;5056479;28;20820;-57
2023/06/06 12:19:32;;;;;;;3.83;3.50;;;;;;;;;;5056545;28;20902;-56
2023/06/06 12:21:59;;;;;;;5.97;3.20;;;;;;;;;;5057044;28;20442;-56
2023/06/06 12:24:28;;;;;;;3.87;3.40;;;26.70;60.00;;;;;;5056887;28;20427;-56
2023/06/06 12:26:59;;;;;;;4.53;3.90;;;26.70;58.80;;;;;;5056491;28;20455;-57
2023/06/06 12:29:30;;;;;;;6.40;3.77;;;;;;;;;;5056204;28;20877;-55
2023/06/06 12:32:19;;;;;;;7.80;5.23;;;26.70;58.50;;;;;;5056450;28;20789;-53
2023/06/06 12:34:49;;;;;;;3.77;3.47;;;26.70;61.70;;;;;;5056398;28;20451;-54
2023/06/06 12:37:16;;;;;;;9.70;4.97;;;;;;;;;;5056078;28;20779;-53
2023/06/06 12:39:44;;;;;;;5.50;3.43;;;;;;;;;;5055910;28;20471;-58
2023/06/06 12:42:15;;;;;;;4.33;3.93;;;26.80;96.80;;;;;;5056516;28;20486;-58
2023/06/06 12:44:42;;;;;;;5.90;3.90;;;;;;;;;;5056118;28;20473;-57
2023/06/06 12:47:10;;;;;;;6.07;3.90;;;;;;;;;;5058434;28;20803;-56
2023/06/06 12:49:39;;;;;;;7.20;4.40;;;;;;;;;;5060425;28;20447;-55
2023/06/06 12:52:07;;;;;;;7.63;4.50;;;27.00;92.30;;;;;;5059801;28;20509;-57
2023/06/06 12:54:39;;;;;;;4.23;3.83;;;26.90;93.50;;;;;;5060217;28;20443;-57
2023/06/06 12:57:08;;;;;;;13.40;9.97;;;26.90;91.50;;;;;;5059633;28;20471;-54
2023/06/06 12:59:35;;;;;;;6.50;5.83;;;;;;;;;;5059706;28;20543;-55
2023/06/06 13:02:06;;;;;;;5.27;4.17;;;;;;;;;;5059341;28;20994;-56
2023/06/06 13:04:33;;;;;;;4.90;4.50;;;;;;;;;;5059987;28;20810;-57
2023/06/06 13:07:02;;;;;;;5.27;4.77;;;26.90;92.80;;;;;;5059539;28;20447;-58
2023/06/06 13:09:30;;;;;;;5.93;3.80;;;26.70;93.00;;;;;;5060412;28;20793;-55
2023/06/06 13:11:57;;;;;;;5.07;4.27;;;;;;;;;;5060795;28;20483;-56
2023/06/06 13:14:24;;;;;;;6.23;4.00;;;26.50;68.10;;;;;;5059074;28;20554;-59
2023/06/06 13:16:52;;;;;;;7.97;3.60;;;;;;;;;;5059287;28;20499;-59
2023/06/06 13:19:19;;;;;;;4.63;4.07;;;;;;;;;;5059003;28;20467;-54
2023/06/06 13:21:47;;;;;;;5.17;3.60;;;;;;;;;;5059648;28;20443;-56
2023/06/06 13:24:17;;;;;;;4.50;4.10;;;;;;;;;;5059234;28;20467;-55
2023/06/06 13:26:44;;;;;;;9.33;4.40;;;;;;;;;;5059392;28;20517;-57
2023/06/06 13:29:12;;;;;;;22.63;4.93;;;;;;;;;;5059444;28;20447;-57
2023/06/06 13:31:39;;;;;;;4.03;3.70;;;;;;;;;;5058885;28;21009;-57
2023/06/06 13:34:06;;;;;;;4.50;4.10;;;;;;;;;;5059459;28;20471;-59
2023/06/06 13:36:34;;;;;;;10.37;3.77;;;;;;;;;;5059504;28;20558;-58
2023/06/06 13:39:01;;;;;;;7.03;4.83;;;25.40;93.90;;;;;;5059276;28;20447;-58
2023/06/06 13:41:30;;;;;;;7.93;4.00;;;25.60;97.70;;;;;;5059062;28;20471;-55
2023/06/06 13:43:59;;;;;;;4.00;3.70;;;;;;;;;;5059237;28;20497;-56
2023/06/06 13:46:26;;;;;;;5.63;3.30;;;;;;;;;;5059113;28;20447;-56
2023/06/06 13:48:53;;;;;;;6.80;3.80;;;;;;;;;;5059828;28;20467;-57
2023/06/06 13:51:21;;;;;;;6.07;3.97;;;;;;;;;;5058678;28;20542;-58
2023/06/06 13:53:48;;;;;;;9.23;5.07;;;;;;;;;;5058417;28;20471;-56
2023/06/06 13:56:15;;;;;;;9.20;3.97;;;;;;;;;;5059210;28;20454;-57
2023/06/06 13:58:50;;;;;;;5.57;4.17;;;24.90;67.80;;;;;;5059002;28;20514;-58